sensor_id;sensor_type;location;lat;lon;timestamp;P1;P2;P0
69849;PMS5003;57144;39.652;-75.770;2022-10-16T00:02:18;6;4;
69849;PMS5003;57144;39.652;-75.770;2022-10-16T00:04:49;4;3;
69849;PMS5003;57144;39.652;-75.770;2022-10-16T00:07:19;6;5;
69849;PMS5003;57144;39.652;-75.770;2022-10-16T00:09:50;4;3;
69849;PMS5003;57144;39.652;-75.770;2022-10-16T00:12:20;3;3;
69849;PMS5003;57144;39.652;-75.770;2022-10-16T00:14:51;4;4;
69849;PMS5003;57144;39.652;-75.770;2022-10-16T00:17:21;5;5;
69849;PMS5003;57144;39.652;-75.770;2022-10-16T00:19:52;5;5;
69849;PMS5003;57144;39.652;-75.770;2022-10-16T00:22:22;4;4;
69849;PMS5003;57144;39.652;-75.770;2022-10-16T00:24:52;6;5;
69849;PMS5003;57144;39.652;-75.770;2022-10-16T00:27:23;4;4;
69849;PMS5003;57144;39.652;-75.770;2022-10-16T00:29:54;4;4;
69849;PMS5003;57144;39.652;-75.770;2022-10-16T00:32:24;6;6;
69849;PMS5003;57144;39.652;-75.770;2022-10-16T00:34:54;7;7;
69849;PMS5003;57144;39.652;-75.770;2022-10-16T00:37:25;6;5;
69849;PMS5003;57144;39.652;-75.770;2022-10-16T00:39:55;5;5;
69849;PMS5003;57144;39.652;-75.770;2022-10-16T00:42:26;6;4;
69849;PMS5003;57144;39.652;-75.770;2022-10-16T00:44:57;6;6;
69849;PMS5003;57144;39.652;-75.770;2022-10-16T00:47:28;5;4;
69849;PMS5003;57144;39.652;-75.770;2022-10-16T00:49:59;5;5;
69849;PMS5003;57144;39.652;-75.770;2022-10-16T00:52:28;5;5;
69849;PMS5003;57144;39.652;-75.770;2022-10-16T00:54:58;5;4;
69849;PMS5003;57144;39.652;-75.770;2022-10-16T00:57:29;6;6;
69849;PMS5003;57144;39.652;-75.770;2022-10-16T00:59:59;6;6;
69849;PMS5003;57144;39.652;-75.770;2022-10-16T01:02:30;6;6;
69849;PMS5003;57144;39.652;-75.770;2022-10-16T01:05:00;6;6;
69849;PMS5003;57144;39.652;-75.770;2022-10-16T01:07:34;7;7;
69849;PMS5003;57144;39.652;-75.770;2022-10-16T01:10:06;7;7;
69849;PMS5003;57144;39.652;-75.770;2022-10-16T01:12:33;4;4;
69849;PMS5003;57144;39.652;-75.770;2022-10-16T01:15:04;6;5;
69849;PMS5003;57144;39.652;-75.770;2022-10-16T01:17:34;5;5;
69849;PMS5003;57144;39.652;-75.770;2022-10-16T01:20:06;8;6;
69849;PMS5003;57144;39.652;-75.770;2022-10-16T01:22:37;5;5;
69849;PMS5003;57144;39.652;-75.770;2022-10-16T01:25:05;6;5;
69849;PMS5003;57144;39.652;-75.770;2022-10-16T01:27:35;6;6;
69849;PMS5003;57144;39.652;-75.770;2022-10-16T01:30:06;8;7;
69849;PMS5003;57144;39.652;-75.770;2022-10-16T01:32:37;6;6;
69849;PMS5003;57144;39.652;-75.770;2022-10-16T01:35:08;5;5;
69849;PMS5003;57144;39.652;-75.770;2022-10-16T01:37:37;7;7;
69849;PMS5003;57144;39.652;-75.770;2022-10-16T01:40:09;6;4;
69849;PMS5003;57144;39.652;-75.770;2022-10-16T01:42:39;6;6;
69849;PMS5003;57144;39.652;-75.770;2022-10-16T01:45:08;6;6;
69849;PMS5003;57144;39.652;-75.770;2022-10-16T01:47:39;8;7;
69849;PMS5003;57144;39.652;-75.770;2022-10-16T01:50:09;8;8;
69849;PMS5003;57144;39.652;-75.770;2022-10-16T01:52:42;6;6;
69849;PMS5003;57144;39.652;-75.770;2022-10-16T01:55:11;8;7;
69849;PMS5003;57144;39.652;-75.770;2022-10-16T01:57:42;6;5;
69849;PMS5003;57144;39.652;-75.770;2022-10-16T02:00:12;7;6;
69849;PMS5003;57144;39.652;-75.770;2022-10-16T02:02:43;5;5;
69849;PMS5003;57144;39.652;-75.770;2022-10-16T02:05:14;7;6;
69849;PMS5003;57144;39.652;-75.770;2022-10-16T02:07:43;8;7;
69849;PMS5003;57144;39.652;-75.770;2022-10-16T02:10:14;9;9;
69849;PMS5003;57144;39.652;-75.770;2022-10-16T02:12:45;9;9;
69849;PMS5003;57144;39.652;-75.770;2022-10-16T02:15:15;7;7;
69849;PMS5003;57144;39.652;-75.770;2022-10-16T02:17:45;5;5;
69849;PMS5003;57144;39.652;-75.770;2022-10-16T02:20:16;8;7;
69849;PMS5003;57144;39.652;-75.770;2022-10-16T02:22:46;11;9;
69849;PMS5003;57144;39.652;-75.770;2022-10-16T02:25:18;9;8;
69849;PMS5003;57144;39.652;-75.770;2022-10-16T02:27:49;8;6;
69849;PMS5003;57144;39.652;-75.770;2022-10-16T02:30:19;10;8;
69849;PMS5003;57144;39.652;-75.770;2022-10-16T02:32:49;7;7;
69849;PMS5003;57144;39.652;-75.770;2022-10-16T02:35:20;6;6;
69849;PMS5003;57144;39.652;-75.770;2022-10-16T02:37:50;6;6;
69849;PMS5003;57144;39.652;-75.770;2022-10-16T02:40:20;8;7;
69849;PMS5003;57144;39.652;-75.770;2022-10-16T02:42:51;8;7;
69849;PMS5003;57144;39.652;-75.770;2022-10-16T02:45:21;6;6;
69849;PMS5003;57144;39.652;-75.770;2022-10-16T02:47:51;5;5;
69849;PMS5003;57144;39.652;-75.770;2022-10-16T02:50:22;6;6;
69849;PMS5003;57144;39.652;-75.770;2022-10-16T02:52:52;6;5;
69849;PMS5003;57144;39.652;-75.770;2022-10-16T02:55:23;5;4;
69849;PMS5003;57144;39.652;-75.770;2022-10-16T02:57:54;7;6;
69849;PMS5003;57144;39.652;-75.770;2022-10-16T03:00:24;6;5;
69849;PMS5003;57144;39.652;-75.770;2022-10-16T03:02:55;7;5;
69849;PMS5003;57144;39.652;-75.770;2022-10-16T03:05:25;7;7;
69849;PMS5003;57144;39.652;-75.770;2022-10-16T03:07:55;5;5;
69849;PMS5003;57144;39.652;-75.770;2022-10-16T03:10:26;6;5;
69849;PMS5003;57144;39.652;-75.770;2022-10-16T03:12:56;6;5;
69849;PMS5003;57144;39.652;-75.770;2022-10-16T03:15:27;6;5;
69849;PMS5003;57144;39.652;-75.770;2022-10-16T03:17:57;5;5;
69849;PMS5003;57144;39.652;-75.770;2022-10-16T03:20:28;6;5;
69849;PMS5003;57144;39.652;-75.770;2022-10-16T03:22:58;5;5;
69849;PMS5003;57144;39.652;-75.770;2022-10-16T03:25:29;6;5;
69849;PMS5003;57144;39.652;-75.770;2022-10-16T03:27:59;6;5;
69849;PMS5003;57144;39.652;-75.770;2022-10-16T03:30:30;5;5;
69849;PMS5003;57144;39.652;-75.770;2022-10-16T03:33:01;6;6;
69849;PMS5003;57144;39.652;-75.770;2022-10-16T03:35:31;8;8;
69849;PMS5003;57144;39.652;-75.770;2022-10-16T03:38:01;7;7;
69849;PMS5003;57144;39.652;-75.770;2022-10-16T03:40:32;6;6;
69849;PMS5003;57144;39.652;-75.770;2022-10-16T03:43:02;7;6;
69849;PMS5003;57144;39.652;-75.770;2022-10-16T03:45:33;6;5;
69849;PMS5003;57144;39.652;-75.770;2022-10-16T03:48:04;8;7;
69849;PMS5003;57144;39.652;-75.770;2022-10-16T03:50:34;6;6;
69849;PMS5003;57144;39.652;-75.770;2022-10-16T03:53:05;7;5;
69849;PMS5003;57144;39.652;-75.770;2022-10-16T03:55:35;6;6;
69849;PMS5003;57144;39.652;-75.770;2022-10-16T03:58:06;7;6;
69849;PMS5003;57144;39.652;-75.770;2022-10-16T04:00:39;6;5;
69849;PMS5003;57144;39.652;-75.770;2022-10-16T04:03:07;7;6;
69849;PMS5003;57144;39.652;-75.770;2022-10-16T04:05:38;8;7;
69849;PMS5003;57144;39.652;-75.770;2022-10-16T04:08:08;5;5;
69849;PMS5003;57144;39.652;-75.770;2022-10-16T04:10:38;8;8;
69849;PMS5003;57144;39.652;-75.770;2022-10-16T04:13:09;5;5;
69849;PMS5003;57144;39.652;-75.770;2022-10-16T04:15:39;6;6;
69849;PMS5003;57144;39.652;-75.770;2022-10-16T04:18:10;6;6;
69849;PMS5003;57144;39.652;-75.770;2022-10-16T04:20:40;5;5;
69849;PMS5003;57144;39.652;-75.770;2022-10-16T04:23:11;7;7;
69849;PMS5003;57144;39.652;-75.770;2022-10-16T04:25:41;6;6;
69849;PMS5003;57144;39.652;-75.770;2022-10-16T04:28:12;7;7;
69849;PMS5003;57144;39.652;-75.770;2022-10-16T04:30:42;7;7;
69849;PMS5003;57144;39.652;-75.770;2022-10-16T04:33:13;6;6;
69849;PMS5003;57144;39.652;-75.770;2022-10-16T04:35:43;7;7;
69849;PMS5003;57144;39.652;-75.770;2022-10-16T04:38:13;6;5;
69849;PMS5003;57144;39.652;-75.770;2022-10-16T04:40:44;7;7;
69849;PMS5003;57144;39.652;-75.770;2022-10-16T04:43:14;6;6;
69849;PMS5003;57144;39.652;-75.770;2022-10-16T04:45:45;8;8;
69849;PMS5003;57144;39.652;-75.770;2022-10-16T04:48:15;7;7;
69849;PMS5003;57144;39.652;-75.770;2022-10-16T04:50:46;9;8;
69849;PMS5003;57144;39.652;-75.770;2022-10-16T04:53:16;7;7;
69849;PMS5003;57144;39.652;-75.770;2022-10-16T04:55:47;7;7;
69849;PMS5003;57144;39.652;-75.770;2022-10-16T04:58:17;9;8;
69849;PMS5003;57144;39.652;-75.770;2022-10-16T05:00:48;9;8;
69849;PMS5003;57144;39.652;-75.770;2022-10-16T05:03:19;8;8;
69849;PMS5003;57144;39.652;-75.770;2022-10-16T05:05:49;15;11;
69849;PMS5003;57144;39.652;-75.770;2022-10-16T05:08:19;12;10;
69849;PMS5003;57144;39.652;-75.770;2022-10-16T05:10:50;16;15;
69849;PMS5003;57144;39.652;-75.770;2022-10-16T05:13:20;14;13;
69849;PMS5003;57144;39.652;-75.770;2022-10-16T05:15:51;14;12;
69849;PMS5003;57144;39.652;-75.770;2022-10-16T05:18:21;17;15;
69849;PMS5003;57144;39.652;-75.770;2022-10-16T05:20:52;17;15;
69849;PMS5003;57144;39.652;-75.770;2022-10-16T05:23:22;13;12;
69849;PMS5003;57144;39.652;-75.770;2022-10-16T05:25:53;15;11;
69849;PMS5003;57144;39.652;-75.770;2022-10-16T05:28:23;15;14;
69849;PMS5003;57144;39.652;-75.770;2022-10-16T05:30:54;9;9;
69849;PMS5003;57144;39.652;-75.770;2022-10-16T05:33:25;11;11;
69849;PMS5003;57144;39.652;-75.770;2022-10-16T05:35:55;15;13;
69849;PMS5003;57144;39.652;-75.770;2022-10-16T05:38:25;10;9;
69849;PMS5003;57144;39.652;-75.770;2022-10-16T05:40:56;11;9;
69849;PMS5003;57144;39.652;-75.770;2022-10-16T05:43:27;13;12;
69849;PMS5003;57144;39.652;-75.770;2022-10-16T05:45:58;12;11;
69849;PMS5003;57144;39.652;-75.770;2022-10-16T05:48:28;13;12;
69849;PMS5003;57144;39.652;-75.770;2022-10-16T05:50:59;11;11;
69849;PMS5003;57144;39.652;-75.770;2022-10-16T05:53:29;15;12;
69849;PMS5003;57144;39.652;-75.770;2022-10-16T05:55:59;13;9;
69849;PMS5003;57144;39.652;-75.770;2022-10-16T05:58:30;11;11;
69849;PMS5003;57144;39.652;-75.770;2022-10-16T06:01:01;10;9;
69849;PMS5003;57144;39.652;-75.770;2022-10-16T06:03:31;10;9;
69849;PMS5003;57144;39.652;-75.770;2022-10-16T06:08:32;11;11;
69849;PMS5003;57144;39.652;-75.770;2022-10-16T06:11:03;11;11;
69849;PMS5003;57144;39.652;-75.770;2022-10-16T06:13:33;14;12;
69849;PMS5003;57144;39.652;-75.770;2022-10-16T06:16:04;15;12;
69849;PMS5003;57144;39.652;-75.770;2022-10-16T06:18:34;14;12;
69849;PMS5003;57144;39.652;-75.770;2022-10-16T06:21:07;16;13;
69849;PMS5003;57144;39.652;-75.770;2022-10-16T06:23:35;11;9;
69849;PMS5003;57144;39.652;-75.770;2022-10-16T06:26:06;14;13;
69849;PMS5003;57144;39.652;-75.770;2022-10-16T06:28:37;16;13;
69849;PMS5003;57144;39.652;-75.770;2022-10-16T06:31:07;16;13;
69849;PMS5003;57144;39.652;-75.770;2022-10-16T06:33:38;18;17;
69849;PMS5003;57144;39.652;-75.770;2022-10-16T06:36:09;18;17;
69849;PMS5003;57144;39.652;-75.770;2022-10-16T06:38:38;17;15;
69849;PMS5003;57144;39.652;-75.770;2022-10-16T06:41:09;17;17;
69849;PMS5003;57144;39.652;-75.770;2022-10-16T06:43:39;18;16;
69849;PMS5003;57144;39.652;-75.770;2022-10-16T06:46:10;16;16;
69849;PMS5003;57144;39.652;-75.770;2022-10-16T06:48:41;17;15;
69849;PMS5003;57144;39.652;-75.770;2022-10-16T06:51:11;16;16;
69849;PMS5003;57144;39.652;-75.770;2022-10-16T06:53:42;15;13;
69849;PMS5003;57144;39.652;-75.770;2022-10-16T06:56:13;15;14;
69849;PMS5003;57144;39.652;-75.770;2022-10-16T06:58:43;15;12;
69849;PMS5003;57144;39.652;-75.770;2022-10-16T07:01:14;13;12;
69849;PMS5003;57144;39.652;-75.770;2022-10-16T07:03:44;16;14;
69849;PMS5003;57144;39.652;-75.770;2022-10-16T07:06:15;15;13;
69849;PMS5003;57144;39.652;-75.770;2022-10-16T07:08:46;16;13;
69849;PMS5003;57144;39.652;-75.770;2022-10-16T07:11:17;18;17;
69849;PMS5003;57144;39.652;-75.770;2022-10-16T07:13:46;17;16;
69849;PMS5003;57144;39.652;-75.770;2022-10-16T07:16:17;19;15;
69849;PMS5003;57144;39.652;-75.770;2022-10-16T07:18:47;15;15;
69849;PMS5003;57144;39.652;-75.770;2022-10-16T07:21:18;18;17;
69849;PMS5003;57144;39.652;-75.770;2022-10-16T07:23:50;19;15;
69849;PMS5003;57144;39.652;-75.770;2022-10-16T07:26:19;19;18;
69849;PMS5003;57144;39.652;-75.770;2022-10-16T07:28:49;21;18;
69849;PMS5003;57144;39.652;-75.770;2022-10-16T07:31:20;21;19;
69849;PMS5003;57144;39.652;-75.770;2022-10-16T07:33:50;18;18;
69849;PMS5003;57144;39.652;-75.770;2022-10-16T07:36:21;18;18;
69849;PMS5003;57144;39.652;-75.770;2022-10-16T07:38:51;21;20;
69849;PMS5003;57144;39.652;-75.770;2022-10-16T07:41:21;18;18;
69849;PMS5003;57144;39.652;-75.770;2022-10-16T07:43:52;17;16;
69849;PMS5003;57144;39.652;-75.770;2022-10-16T07:46:23;17;15;
69849;PMS5003;57144;39.652;-75.770;2022-10-16T07:48:53;18;17;
69849;PMS5003;57144;39.652;-75.770;2022-10-16T07:51:24;18;17;
69849;PMS5003;57144;39.652;-75.770;2022-10-16T07:53:54;19;18;
69849;PMS5003;57144;39.652;-75.770;2022-10-16T07:56:25;19;17;
69849;PMS5003;57144;39.652;-75.770;2022-10-16T07:58:55;18;18;
69849;PMS5003;57144;39.652;-75.770;2022-10-16T08:01:26;19;18;
69849;PMS5003;57144;39.652;-75.770;2022-10-16T08:03:56;20;18;
69849;PMS5003;57144;39.652;-75.770;2022-10-16T08:06:27;19;17;
69849;PMS5003;57144;39.652;-75.770;2022-10-16T08:08:57;20;18;
69849;PMS5003;57144;39.652;-75.770;2022-10-16T08:11:28;20;20;
69849;PMS5003;57144;39.652;-75.770;2022-10-16T08:13:58;21;19;
69849;PMS5003;57144;39.652;-75.770;2022-10-16T08:16:29;20;19;
69849;PMS5003;57144;39.652;-75.770;2022-10-16T08:18:59;22;20;
69849;PMS5003;57144;39.652;-75.770;2022-10-16T08:21:30;19;18;
69849;PMS5003;57144;39.652;-75.770;2022-10-16T08:24:00;20;19;
69849;PMS5003;57144;39.652;-75.770;2022-10-16T08:26:31;20;19;
69849;PMS5003;57144;39.652;-75.770;2022-10-16T08:29:01;18;17;
69849;PMS5003;57144;39.652;-75.770;2022-10-16T08:31:32;15;14;
69849;PMS5003;57144;39.652;-75.770;2022-10-16T08:34:03;18;16;
69849;PMS5003;57144;39.652;-75.770;2022-10-16T08:36:33;18;16;
69849;PMS5003;57144;39.652;-75.770;2022-10-16T08:39:03;21;18;
69849;PMS5003;57144;39.652;-75.770;2022-10-16T08:41:46;17;17;
69849;PMS5003;57144;39.652;-75.770;2022-10-16T08:44:11;18;17;
69849;PMS5003;57144;39.652;-75.770;2022-10-16T08:46:38;19;17;
69849;PMS5003;57144;39.652;-75.770;2022-10-16T08:49:06;19;19;
69849;PMS5003;57144;39.652;-75.770;2022-10-16T08:51:36;20;16;
69849;PMS5003;57144;39.652;-75.770;2022-10-16T08:54:11;17;15;
69849;PMS5003;57144;39.652;-75.770;2022-10-16T08:56:37;20;19;
69849;PMS5003;57144;39.652;-75.770;2022-10-16T08:59:10;19;18;
69849;PMS5003;57144;39.652;-75.770;2022-10-16T09:01:39;20;16;
69849;PMS5003;57144;39.652;-75.770;2022-10-16T09:06:42;20;19;
69849;PMS5003;57144;39.652;-75.770;2022-10-16T09:09:15;18;18;
69849;PMS5003;57144;39.652;-75.770;2022-10-16T09:11:43;18;18;
69849;PMS5003;57144;39.652;-75.770;2022-10-16T09:14:16;18;17;
69849;PMS5003;57144;39.652;-75.770;2022-10-16T09:16:42;17;17;
69849;PMS5003;57144;39.652;-75.770;2022-10-16T09:19:13;19;17;
69849;PMS5003;57144;39.652;-75.770;2022-10-16T09:21:43;13;11;
69849;PMS5003;57144;39.652;-75.770;2022-10-16T09:24:14;14;12;
69849;PMS5003;57144;39.652;-75.770;2022-10-16T09:26:44;17;15;
69849;PMS5003;57144;39.652;-75.770;2022-10-16T09:29:14;15;12;
69849;PMS5003;57144;39.652;-75.770;2022-10-16T09:31:45;17;13;
69849;PMS5003;57144;39.652;-75.770;2022-10-16T09:34:17;17;13;
69849;PMS5003;57144;39.652;-75.770;2022-10-16T09:36:46;17;16;
69849;PMS5003;57144;39.652;-75.770;2022-10-16T09:39:16;15;13;
69849;PMS5003;57144;39.652;-75.770;2022-10-16T09:41:47;18;15;
69849;PMS5003;57144;39.652;-75.770;2022-10-16T09:44:18;14;11;
69849;PMS5003;57144;39.652;-75.770;2022-10-16T09:46:48;12;8;
69849;PMS5003;57144;39.652;-75.770;2022-10-16T09:49:20;17;13;
69849;PMS5003;57144;39.652;-75.770;2022-10-16T09:51:49;15;10;
69849;PMS5003;57144;39.652;-75.770;2022-10-16T09:54:20;16;10;
69849;PMS5003;57144;39.652;-75.770;2022-10-16T09:56:50;17;16;
69849;PMS5003;57144;39.652;-75.770;2022-10-16T09:59:21;16;13;
69849;PMS5003;57144;39.652;-75.770;2022-10-16T10:01:51;17;12;
69849;PMS5003;57144;39.652;-75.770;2022-10-16T10:04:23;14;13;
69849;PMS5003;57144;39.652;-75.770;2022-10-16T10:06:52;15;14;
69849;PMS5003;57144;39.652;-75.770;2022-10-16T10:09:23;19;18;
69849;PMS5003;57144;39.652;-75.770;2022-10-16T10:11:54;19;16;
69849;PMS5003;57144;39.652;-75.770;2022-10-16T10:14:26;16;12;
69849;PMS5003;57144;39.652;-75.770;2022-10-16T10:19:26;13;13;
69849;PMS5003;57144;39.652;-75.770;2022-10-16T10:21:55;19;16;
69849;PMS5003;57144;39.652;-75.770;2022-10-16T10:24:25;17;17;
69849;PMS5003;57144;39.652;-75.770;2022-10-16T10:26:57;20;17;
69849;PMS5003;57144;39.652;-75.770;2022-10-16T10:29:30;19;16;
69849;PMS5003;57144;39.652;-75.770;2022-10-16T10:31:59;17;17;
69849;PMS5003;57144;39.652;-75.770;2022-10-16T10:36:59;19;17;
69849;PMS5003;57144;39.652;-75.770;2022-10-16T10:39:30;18;16;
69849;PMS5003;57144;39.652;-75.770;2022-10-16T10:42:05;18;17;
69849;PMS5003;57144;39.652;-75.770;2022-10-16T10:44:34;20;18;
69849;PMS5003;57144;39.652;-75.770;2022-10-16T10:47:03;18;16;
69849;PMS5003;57144;39.652;-75.770;2022-10-16T10:49:34;20;18;
69849;PMS5003;57144;39.652;-75.770;2022-10-16T10:52:05;19;19;
69849;PMS5003;57144;39.652;-75.770;2022-10-16T10:54:33;18;17;
69849;PMS5003;57144;39.652;-75.770;2022-10-16T10:57:02;18;17;
69849;PMS5003;57144;39.652;-75.770;2022-10-16T11:02:04;18;18;
69849;PMS5003;57144;39.652;-75.770;2022-10-16T11:04:37;16;15;
69849;PMS5003;57144;39.652;-75.770;2022-10-16T11:07:04;17;16;
69849;PMS5003;57144;39.652;-75.770;2022-10-16T11:09:36;20;17;
69849;PMS5003;57144;39.652;-75.770;2022-10-16T11:12:06;22;18;
69849;PMS5003;57144;39.652;-75.770;2022-10-16T11:14:38;19;19;
69849;PMS5003;57144;39.652;-75.770;2022-10-16T11:17:07;20;17;
69849;PMS5003;57144;39.652;-75.770;2022-10-16T11:19:37;19;18;
69849;PMS5003;57144;39.652;-75.770;2022-10-16T11:22:09;20;19;
69849;PMS5003;57144;39.652;-75.770;2022-10-16T11:24:40;21;18;
69849;PMS5003;57144;39.652;-75.770;2022-10-16T11:27:08;18;16;
69849;PMS5003;57144;39.652;-75.770;2022-10-16T11:29:43;17;14;
69849;PMS5003;57144;39.652;-75.770;2022-10-16T11:32:12;20;16;
69849;PMS5003;57144;39.652;-75.770;2022-10-16T11:34:41;19;17;
69849;PMS5003;57144;39.652;-75.770;2022-10-16T11:37:11;20;17;
69849;PMS5003;57144;39.652;-75.770;2022-10-16T11:39:41;17;15;
69849;PMS5003;57144;39.652;-75.770;2022-10-16T11:42:13;17;14;
69849;PMS5003;57144;39.652;-75.770;2022-10-16T11:44:44;18;17;
69849;PMS5003;57144;39.652;-75.770;2022-10-16T11:47:17;18;17;
69849;PMS5003;57144;39.652;-75.770;2022-10-16T11:49:43;15;14;
69849;PMS5003;57144;39.652;-75.770;2022-10-16T11:52:16;18;17;
69849;PMS5003;57144;39.652;-75.770;2022-10-16T11:54:45;18;17;
69849;PMS5003;57144;39.652;-75.770;2022-10-16T11:57:16;17;14;
69849;PMS5003;57144;39.652;-75.770;2022-10-16T11:59:46;15;13;
69849;PMS5003;57144;39.652;-75.770;2022-10-16T12:04:48;15;11;
69849;PMS5003;57144;39.652;-75.770;2022-10-16T12:07:18;15;13;
69849;PMS5003;57144;39.652;-75.770;2022-10-16T12:09:47;16;14;
69849;PMS5003;57144;39.652;-75.770;2022-10-16T12:14:59;13;9;
69849;PMS5003;57144;39.652;-75.770;2022-10-16T12:17:23;9;9;
69849;PMS5003;57144;39.652;-75.770;2022-10-16T12:22:20;9;9;
69849;PMS5003;57144;39.652;-75.770;2022-10-16T12:24:51;8;8;
69849;PMS5003;57144;39.652;-75.770;2022-10-16T12:27:23;9;7;
69849;PMS5003;57144;39.652;-75.770;2022-10-16T12:29:55;14;8;
69849;PMS5003;57144;39.652;-75.770;2022-10-16T12:32:25;7;7;
69849;PMS5003;57144;39.652;-75.770;2022-10-16T12:34:53;8;6;
69849;PMS5003;57144;39.652;-75.770;2022-10-16T12:37:24;8;5;
69849;PMS5003;57144;39.652;-75.770;2022-10-16T12:39:54;6;6;
69849;PMS5003;57144;39.652;-75.770;2022-10-16T12:44:55;6;5;
69849;PMS5003;57144;39.652;-75.770;2022-10-16T12:49:56;7;5;
69849;PMS5003;57144;39.652;-75.770;2022-10-16T12:52:27;9;7;
69849;PMS5003;57144;39.652;-75.770;2022-10-16T12:54:58;7;7;
69849;PMS5003;57144;39.652;-75.770;2022-10-16T12:57:31;7;5;
69849;PMS5003;57144;39.652;-75.770;2022-10-16T12:59:59;5;5;
69849;PMS5003;57144;39.652;-75.770;2022-10-16T13:05:05;6;5;
69849;PMS5003;57144;39.652;-75.770;2022-10-16T13:10:03;5;5;
69849;PMS5003;57144;39.652;-75.770;2022-10-16T13:15:04;6;6;
69849;PMS5003;57144;39.652;-75.770;2022-10-16T13:17:33;7;6;
69849;PMS5003;57144;39.652;-75.770;2022-10-16T13:20:03;5;4;
69849;PMS5003;57144;39.652;-75.770;2022-10-16T13:22:34;4;2;
69849;PMS5003;57144;39.652;-75.770;2022-10-16T13:25:08;5;3;
69849;PMS5003;57144;39.652;-75.770;2022-10-16T13:27:35;6;6;
69849;PMS5003;57144;39.652;-75.770;2022-10-16T13:30:09;5;4;
69849;PMS5003;57144;39.652;-75.770;2022-10-16T13:32:34;4;4;
69849;PMS5003;57144;39.652;-75.770;2022-10-16T13:37:35;4;4;
69849;PMS5003;57144;39.652;-75.770;2022-10-16T13:40:09;4;4;
69849;PMS5003;57144;39.652;-75.770;2022-10-16T13:42:36;4;4;
69849;PMS5003;57144;39.652;-75.770;2022-10-16T13:47:37;4;4;
69849;PMS5003;57144;39.652;-75.770;2022-10-16T13:50:10;4;4;
69849;PMS5003;57144;39.652;-75.770;2022-10-16T13:52:38;5;5;
69849;PMS5003;57144;39.652;-75.770;2022-10-16T13:55:10;4;3;
69849;PMS5003;57144;39.652;-75.770;2022-10-16T13:57:39;5;5;
69849;PMS5003;57144;39.652;-75.770;2022-10-16T14:02:40;4;4;
69849;PMS5003;57144;39.652;-75.770;2022-10-16T14:05:12;6;5;
69849;PMS5003;57144;39.652;-75.770;2022-10-16T14:07:41;3;3;
69849;PMS5003;57144;39.652;-75.770;2022-10-16T14:12:42;4;4;
69849;PMS5003;57144;39.652;-75.770;2022-10-16T14:15:15;4;3;
69849;PMS5003;57144;39.652;-75.770;2022-10-16T14:17:43;4;4;
69849;PMS5003;57144;39.652;-75.770;2022-10-16T14:20:14;4;4;
69849;PMS5003;57144;39.652;-75.770;2022-10-16T14:22:44;3;3;
69849;PMS5003;57144;39.652;-75.770;2022-10-16T14:25:20;2;2;
69849;PMS5003;57144;39.652;-75.770;2022-10-16T14:27:45;4;4;
69849;PMS5003;57144;39.652;-75.770;2022-10-16T14:30:17;3;3;
69849;PMS5003;57144;39.652;-75.770;2022-10-16T14:37:50;2;1;
69849;PMS5003;57144;39.652;-75.770;2022-10-16T14:40:17;4;4;
69849;PMS5003;57144;39.652;-75.770;2022-10-16T14:42:48;2;1;
69849;PMS5003;57144;39.652;-75.770;2022-10-16T14:45:19;3;2;
69849;PMS5003;57144;39.652;-75.770;2022-10-16T14:47:49;3;1;
69849;PMS5003;57144;39.652;-75.770;2022-10-16T14:50:19;2;2;
69849;PMS5003;57144;39.652;-75.770;2022-10-16T14:52:50;1;1;
69849;PMS5003;57144;39.652;-75.770;2022-10-16T14:55:20;3;3;
69849;PMS5003;57144;39.652;-75.770;2022-10-16T14:57:51;3;3;
69849;PMS5003;57144;39.652;-75.770;2022-10-16T15:00:22;3;1;
69849;PMS5003;57144;39.652;-75.770;2022-10-16T15:02:52;2;2;
69849;PMS5003;57144;39.652;-75.770;2022-10-16T15:05:23;3;3;
69849;PMS5003;57144;39.652;-75.770;2022-10-16T15:07:53;2;2;
69849;PMS5003;57144;39.652;-75.770;2022-10-16T15:10:24;3;2;
69849;PMS5003;57144;39.652;-75.770;2022-10-16T15:12:54;3;3;
69849;PMS5003;57144;39.652;-75.770;2022-10-16T15:15:31;1;1;
69849;PMS5003;57144;39.652;-75.770;2022-10-16T15:17:55;2;0;
69849;PMS5003;57144;39.652;-75.770;2022-10-16T15:20:25;3;3;
69849;PMS5003;57144;39.652;-75.770;2022-10-16T15:22:56;2;2;
69849;PMS5003;57144;39.652;-75.770;2022-10-16T15:25:31;2;1;
69849;PMS5003;57144;39.652;-75.770;2022-10-16T15:27:56;2;1;
69849;PMS5003;57144;39.652;-75.770;2022-10-16T15:30:27;2;1;
69849;PMS5003;57144;39.652;-75.770;2022-10-16T15:32:57;2;1;
69849;PMS5003;57144;39.652;-75.770;2022-10-16T15:35:28;2;0;
69849;PMS5003;57144;39.652;-75.770;2022-10-16T15:37:58;1;0;
69849;PMS5003;57144;39.652;-75.770;2022-10-16T15:40:29;2;1;
69849;PMS5003;57144;39.652;-75.770;2022-10-16T15:42:59;2;2;
69849;PMS5003;57144;39.652;-75.770;2022-10-16T15:45:29;1;1;
69849;PMS5003;57144;39.652;-75.770;2022-10-16T15:48:00;0;0;
69849;PMS5003;57144;39.652;-75.770;2022-10-16T15:50:30;0;0;
69849;PMS5003;57144;39.652;-75.770;2022-10-16T15:53:01;0;0;
69849;PMS5003;57144;39.652;-75.770;2022-10-16T15:55:31;1;1;
69849;PMS5003;57144;39.652;-75.770;2022-10-16T15:58:01;2;2;
69849;PMS5003;57144;39.652;-75.770;2022-10-16T16:00:32;0;0;
69849;PMS5003;57144;39.652;-75.770;2022-10-16T16:03:02;1;0;
69849;PMS5003;57144;39.652;-75.770;2022-10-16T16:05:36;0;0;
69849;PMS5003;57144;39.652;-75.770;2022-10-16T16:08:03;0;0;
69849;PMS5003;57144;39.652;-75.770;2022-10-16T16:10:34;0;0;
69849;PMS5003;57144;39.652;-75.770;2022-10-16T16:13:04;0;0;
69849;PMS5003;57144;39.652;-75.770;2022-10-16T16:15:38;0;0;
69849;PMS5003;57144;39.652;-75.770;2022-10-16T16:18:05;1;0;
69849;PMS5003;57144;39.652;-75.770;2022-10-16T16:20:36;0;0;
69849;PMS5003;57144;39.652;-75.770;2022-10-16T16:23:07;1;0;
69849;PMS5003;57144;39.652;-75.770;2022-10-16T16:25:37;1;1;
69849;PMS5003;57144;39.652;-75.770;2022-10-16T16:28:08;0;0;
69849;PMS5003;57144;39.652;-75.770;2022-10-16T16:30:38;0;0;
69849;PMS5003;57144;39.652;-75.770;2022-10-16T16:33:09;0;0;
69849;PMS5003;57144;39.652;-75.770;2022-10-16T16:35:39;0;0;
69849;PMS5003;57144;39.652;-75.770;2022-10-16T16:38:10;0;0;
69849;PMS5003;57144;39.652;-75.770;2022-10-16T16:40:40;0;0;
69849;PMS5003;57144;39.652;-75.770;2022-10-16T16:43:11;0;0;
69849;PMS5003;57144;39.652;-75.770;2022-10-16T16:45:41;1;1;
69849;PMS5003;57144;39.652;-75.770;2022-10-16T16:48:12;1;0;
69849;PMS5003;57144;39.652;-75.770;2022-10-16T16:50:42;0;0;
69849;PMS5003;57144;39.652;-75.770;2022-10-16T16:53:13;0;0;
69849;PMS5003;57144;39.652;-75.770;2022-10-16T16:55:43;0;0;
69849;PMS5003;57144;39.652;-75.770;2022-10-16T16:58:14;0;0;
69849;PMS5003;57144;39.652;-75.770;2022-10-16T17:00:45;0;0;
69849;PMS5003;57144;39.652;-75.770;2022-10-16T17:03:15;0;0;
69849;PMS5003;57144;39.652;-75.770;2022-10-16T17:08:16;0;0;
69849;PMS5003;57144;39.652;-75.770;2022-10-16T17:10:46;0;0;
69849;PMS5003;57144;39.652;-75.770;2022-10-16T17:13:17;0;0;
69849;PMS5003;57144;39.652;-75.770;2022-10-16T17:15:48;0;0;